Impacts METAR Board
IDs:

KJFK - New York/Kennedy Int, NY, US

Updated at: 1500 UTC 01 Mar 2021
Potential Impact None Slight Moderate High
Time 01/03Z 01/04Z 01/05Z 01/06Z 01/07Z 01/08Z 01/09Z 01/10Z 01/11Z 01/12Z 01/13Z 01/14Z 01/15Z
Temp43 44 44 45 45 42 41 40 41 41 42 42 42
Dewpt41 43 43 43 44 40 39 39 39 40 40 40 40
Altim29.98 29.95 29.91 29.85 29.83 29.78 29.74 29.70 29.71 29.71 29.66 29.64 29.62
VIS1 1 1 1 1 1 1 1 1 2 2 0.25 1
CIG3 4 4 4 3 4 4 4 4 5 65 4 7
CoverOVCOVCOVCOVCOVCOVCOVCOVCOVCOVCOVCOVCOVC
FltCatLIFRLIFRLIFRLIFRLIFRLIFRLIFRLIFRLIFRIFRIFRLIFRIFR
WX-RA BR-RA BR-RA BR-DZ BR-RA BR-RA BR-RA BR-RA BR-RA BRBR-RA BRBRBR
WDir9040508060360330330310260230220240
WSpd6 8 6 8 4 5 5 3 4 4 3 7 9
WGst-- -- -- -- -- -- -- -- -- -- -- -- --
Raw hourly METARs
KJFK 010251Z 09006KT 1SM R04R/P6000FT -RA BR OVC003 06/05 A2998 RMK AO2 SFC VIS 3 RAE02B27 SLP152 P0002 60006 T00610050 58026
KJFK 010351Z 04008KT 1SM R04R/P6000FT -RA BR OVC004 07/06 A2995 RMK AO2 SFC VIS 2 1/2 SLP143 P0002 T00670061
KJFK 010451Z 05006KT 1SM R04R/P6000FT -RA BR OVC004 07/06 A2991 RMK AO2 SFC VIS 2 1/2 SLP127 P0004 T00670061 400830028
KJFK 010551Z 08008KT 1SM R04R/P6000FT -DZ BR OVC004 07/06 A2985 RMK AO2 SFC VIS 3 RAE47DZB47 SLP108 P0001 60013 T00720061 10072 20050 58044
KJFK 010651Z 06004KT 1SM R04R/P6000FT -RA BR OVC003 07/07 A2983 RMK AO2 SFC VIS 3 DZE39RAB39 SLP100 P0001 T00720067
KJFK 010751Z 36005KT 1SM R04R/P6000FT -RA BR OVC004 06/04 A2978 RMK AO2 SFC VIS 3 SLP082 P0005 T00560044
KJFK 010851Z 33005KT 1SM R04R/P6000FT -RA BR OVC004 05/04 A2974 RMK AO2 SFC VIS 4 SLP071 P0004 60010 T00500039 58037
KJFK 010951Z 33003KT 1SM R04R/P6000FT -RA BR OVC004 04/04 A2970 RMK AO2 SFC VIS 5 SLP057 P0000 T00440039
KJFK 011051Z 31004KT 1SM R04R/P6000FT -RA BR OVC004 05/04 A2971 RMK AO2 SFC VIS 6 SLP061 P0003 T00500039
KJFK 011151Z 26004KT 2SM BR BKN005 OVC070 05/04 A2971 RMK AO2 SFC VIS 6 RAE36 SLP061 P0000 60013 70039 T00500044 10072 20044 56010
KJFK 011251Z 23003KT 2SM -RA BR SCT005 OVC065 06/04 A2966 RMK AO2 SFC VIS 6 RAB1155 SLP043 P0001 T00560044
KJFK 011351Z 22007KT 1/4SM R04R/P6000FT BR BKN004 BKN055 OVC100 06/04 A2964 RMK AO2 SFC VIS 3 RAE09 SLP037 BKN004 V SCT P0000 T00560044
KJFK 011451Z 24009KT 1SM R04R/P6000FT BR BKN007 OVC110 06/04 A2962 RMK AO2 SFC VIS 3 SLP029 60001 T00560044 56032



Page loaded:  15:43 UTC  |   07:43 AM Pacific  |   08:43 AM Mountain  |   09:43 AM Central  |   10:43 AM Eastern

 

ADVISORIES

FORECASTS

FORECASTS

OBSERVATIONS

USER TOOLS

ABOUT US